createdAt,value
2022-08-29T00:01:44.333Z,99.90
2022-08-29T00:04:33.211Z,99.90
2022-08-29T00:07:21.844Z,99.90
2022-08-29T00:10:10.195Z,99.90
2022-08-29T00:13:06.151Z,99.90
2022-08-29T00:15:55.330Z,99.90
2022-08-29T00:18:45.190Z,99.90
2022-08-29T00:21:33.280Z,99.90
2022-08-29T00:24:22.168Z,99.90
2022-08-29T00:27:11.794Z,99.90
2022-08-29T00:29:59.162Z,99.90
2022-08-29T00:32:55.242Z,99.90
2022-08-29T00:35:54.168Z,99.90
2022-08-29T00:38:45.429Z,99.90
2022-08-29T00:41:27.186Z,99.90
2022-08-29T00:44:15.331Z,99.90
2022-08-29T00:47:06.213Z,99.90
2022-08-29T00:49:50.675Z,99.90
2022-08-29T00:52:43.175Z,99.90
2022-08-29T00:55:28.308Z,99.90
2022-08-29T00:58:21.159Z,99.90
2022-08-29T01:01:03.317Z,99.90
2022-08-29T01:03:59.172Z,99.90
2022-08-29T01:06:49.287Z,99.90
2022-08-29T01:09:40.165Z,99.90
2022-08-29T01:12:29.476Z,99.90
2022-08-29T01:15:20.181Z,99.90
2022-08-29T01:18:10.418Z,99.90
2022-08-29T01:21:10.205Z,99.90
2022-08-29T01:24:05.396Z,99.90
2022-08-29T01:26:49.201Z,99.90
2022-08-29T01:29:37.316Z,99.90
2022-08-29T01:32:20.249Z,99.90
2022-08-29T01:35:16.180Z,99.90
2022-08-29T01:38:04.394Z,99.90
2022-08-29T01:40:46.649Z,99.90
2022-08-29T01:43:43.194Z,99.90
2022-08-29T01:46:30.067Z,99.90
2022-08-29T01:49:22.186Z,99.90
2022-08-29T01:52:05.318Z,99.90
2022-08-29T01:54:55.249Z,99.90
2022-08-29T01:57:45.375Z,99.90
2022-08-29T02:00:38.350Z,99.90
2022-08-29T02:03:26.462Z,99.90
2022-08-29T02:06:08.226Z,99.90
2022-08-29T02:08:56.328Z,99.90
2022-08-29T02:11:38.295Z,99.90
2022-08-29T02:14:26.429Z,99.90
2022-08-29T02:17:09.244Z,99.90
2022-08-29T02:19:57.351Z,99.90
2022-08-29T02:22:39.290Z,99.90
2022-08-29T02:25:42.746Z,99.90
2022-08-29T02:28:32.223Z,99.90
2022-08-29T02:31:14.520Z,99.90
2022-08-29T02:34:11.567Z,99.90
2022-08-29T02:37:00.243Z,99.90
2022-08-29T02:39:49.227Z,99.90
2022-08-29T02:42:38.363Z,99.90
2022-08-29T02:45:27.214Z,99.90
2022-08-29T02:48:16.492Z,99.90
2022-08-29T02:51:09.358Z,99.90
2022-08-29T02:53:57.398Z,99.90
2022-08-29T02:56:39.241Z,99.90
2022-08-29T02:59:27.808Z,99.90
2022-08-29T03:02:09.326Z,99.90
2022-08-29T03:04:59.962Z,99.90
2022-08-29T03:07:47.938Z,99.90
2022-08-29T03:10:38.349Z,99.90
2022-08-29T03:13:20.313Z,99.90
2022-08-29T03:16:09.434Z,99.90
2022-08-29T03:18:59.255Z,99.90
2022-08-29T03:21:47.313Z,99.90
2022-08-29T03:24:30.479Z,99.90
2022-08-29T03:27:19.242Z,99.90
2022-08-29T03:30:00.815Z,99.90
2022-08-29T03:32:49.217Z,99.90
2022-08-29T03:35:44.229Z,99.90
2022-08-29T03:38:39.290Z,99.90
2022-08-29T03:41:30.222Z,99.90
2022-08-29T03:44:12.644Z,99.90
2022-08-29T03:47:01.381Z,99.90
2022-08-29T03:49:43.360Z,99.90
2022-08-29T03:52:38.159Z,99.90
2022-08-29T03:55:22.462Z,99.90
2022-08-29T03:58:12.235Z,99.90
2022-08-29T04:00:54.410Z,99.90
2022-08-29T04:03:49.315Z,99.90
2022-08-29T04:06:38.357Z,99.90
2022-08-29T04:09:26.246Z,99.90
2022-08-29T04:12:15.458Z,99.90
2022-08-29T04:15:05.321Z,99.90
2022-08-29T04:17:54.422Z,99.90
2022-08-29T04:20:47.227Z,99.90
2022-08-29T04:23:35.470Z,99.90
2022-08-29T04:26:38.087Z,99.90
2022-08-29T04:29:26.992Z,99.90
2022-08-29T04:32:16.255Z,99.90
2022-08-29T04:35:12.257Z,99.90
2022-08-29T04:38:00.312Z,99.90
2022-08-29T04:40:44.696Z,99.90
2022-08-29T04:43:39.335Z,99.90
2022-08-29T04:46:27.505Z,99.90
2022-08-29T04:49:17.293Z,99.90
2022-08-29T04:52:06.326Z,99.90
2022-08-29T04:54:47.464Z,99.90
2022-08-29T04:57:35.347Z,99.90
2022-08-29T05:00:21.379Z,99.90
2022-08-29T05:03:10.339Z,99.90
2022-08-29T05:05:53.379Z,99.90
2022-08-29T05:08:58.898Z,99.90
2022-08-29T05:11:47.498Z,99.90
2022-08-29T05:14:36.278Z,99.90
2022-08-29T05:17:24.455Z,99.90
2022-08-29T05:20:13.342Z,99.90
2022-08-29T05:23:03.466Z,99.90
2022-08-29T05:25:52.268Z,99.90
2022-08-29T05:28:43.992Z,99.90
2022-08-29T05:31:25.505Z,99.90
2022-08-29T05:34:34.635Z,99.90
2022-08-29T05:37:26.255Z,99.90
2022-08-29T05:40:09.656Z,99.90
2022-08-29T05:42:57.288Z,99.90
2022-08-29T05:45:38.522Z,99.90
2022-08-29T05:48:26.273Z,99.90
2022-08-29T05:51:08.507Z,99.90
2022-08-29T05:54:03.339Z,99.90
2022-08-29T05:56:53.450Z,99.90
2022-08-29T05:59:42.287Z,99.90
2022-08-29T06:02:30.680Z,99.90
2022-08-29T06:05:19.354Z,99.90
2022-08-29T06:08:07.607Z,99.90
2022-08-29T06:10:57.320Z,99.90
2022-08-29T06:13:47.529Z,99.90
2022-08-29T06:16:30.324Z,99.90
2022-08-29T06:19:19.433Z,99.90
2022-08-29T06:22:03.301Z,99.90
2022-08-29T06:25:00.496Z,99.90
2022-08-29T06:27:46.389Z,99.90
2022-08-29T06:30:39.518Z,99.90
2022-08-29T06:33:21.320Z,99.90
2022-08-29T06:36:17.383Z,99.90
2022-08-29T06:39:14.328Z,99.90
2022-08-29T06:42:02.460Z,99.90
2022-08-29T06:44:51.405Z,99.90
2022-08-29T06:47:41.458Z,99.90
2022-08-29T06:50:30.315Z,99.90
2022-08-29T06:53:27.565Z,99.90
2022-08-29T06:56:21.319Z,99.90
2022-08-29T06:59:09.528Z,99.90
2022-08-29T07:01:52.365Z,99.90
2022-08-29T07:04:42.560Z,99.90
2022-08-29T07:07:24.298Z,99.90
2022-08-29T07:10:18.671Z,99.90
2022-08-29T07:13:03.317Z,99.90
2022-08-29T07:15:52.019Z,99.90
2022-08-29T07:18:40.315Z,99.90
2022-08-29T07:21:32.448Z,99.90
2022-08-29T07:24:27.411Z,99.90
2022-08-29T07:27:15.525Z,99.90
2022-08-29T07:30:04.347Z,99.90
2022-08-29T07:32:52.640Z,99.90
2022-08-29T07:35:41.410Z,99.90
2022-08-29T07:38:32.729Z,99.90
2022-08-29T07:41:20.325Z,99.90
2022-08-29T07:44:08.463Z,99.90
2022-08-29T07:46:51.308Z,99.90
2022-08-29T07:49:46.431Z,99.90
2022-08-29T07:52:34.835Z,99.90
2022-08-29T07:55:24.320Z,99.90
2022-08-29T07:58:12.484Z,99.90
2022-08-29T08:01:00.447Z,99.90
2022-08-29T08:03:48.501Z,99.90
2022-08-29T08:06:34.404Z,99.90
2022-08-29T08:09:23.528Z,99.90
2022-08-29T08:12:08.308Z,99.90
2022-08-29T08:14:56.907Z,99.90
2022-08-29T08:17:43.335Z,99.90
2022-08-29T08:20:35.222Z,99.90
2022-08-29T08:23:17.528Z,99.90
2022-08-29T08:26:05.620Z,99.90
2022-08-29T08:28:56.416Z,99.90
2022-08-29T08:31:49.982Z,99.90
2022-08-29T08:34:41.413Z,99.90
2022-08-29T08:37:29.530Z,99.90
2022-08-29T08:40:18.380Z,99.90
2022-08-29T08:43:09.537Z,99.90
2022-08-29T08:45:59.365Z,99.90
2022-08-29T08:48:48.509Z,99.90
2022-08-29T08:51:35.351Z,99.90
2022-08-29T08:54:29.613Z,99.90
2022-08-29T08:57:15.437Z,99.90
2022-08-29T09:00:06.724Z,99.90
2022-08-29T09:03:03.355Z,99.90
2022-08-29T09:06:08.880Z,99.90
2022-08-29T09:09:05.380Z,99.90
2022-08-29T09:12:10.148Z,99.90
2022-08-29T09:15:13.366Z,99.90
2022-08-29T09:18:06.579Z,99.90
2022-08-29T09:20:55.402Z,99.90
2022-08-29T09:23:49.625Z,99.90
2022-08-29T09:26:33.410Z,99.90
2022-08-29T09:29:21.984Z,99.90
2022-08-29T09:32:20.187Z,99.90
2022-08-29T09:35:35.702Z,99.90
2022-08-29T09:38:30.380Z,99.90
2022-08-29T09:41:15.171Z,99.90
2022-08-29T09:44:09.382Z,99.90
2022-08-29T09:47:13.554Z,99.90
2022-08-29T09:50:19.528Z,99.90
2022-08-29T09:53:24.431Z,99.90
2022-08-29T09:56:19.476Z,99.90
2022-08-29T09:59:17.557Z,99.90
2022-08-29T10:02:31.552Z,99.90
2022-08-29T10:05:36.585Z,99.90
2022-08-29T10:08:44.404Z,99.90
2022-08-29T10:11:37.536Z,99.90
2022-08-29T10:14:31.470Z,99.90
2022-08-29T10:17:45.193Z,99.90
2022-08-29T10:20:35.452Z,99.90
2022-08-29T10:23:29.660Z,99.90
2022-08-29T10:26:29.392Z,99.90
2022-08-29T10:29:20.560Z,99.90
2022-08-29T10:32:16.476Z,99.90
2022-08-29T10:35:22.392Z,99.90
2022-08-29T10:38:23.362Z,99.90
2022-08-29T10:41:12.613Z,99.90
2022-08-29T10:47:27.571Z,99.90
2022-08-29T10:50:46.083Z,99.90
2022-08-29T10:53:40.564Z,99.90
2022-08-29T10:56:28.986Z,99.90
2022-08-29T10:59:23.530Z,99.90
2022-08-29T11:02:12.469Z,99.90
2022-08-29T11:05:03.726Z,99.90
2022-08-29T11:07:51.418Z,99.90
2022-08-29T11:10:43.563Z,99.90
2022-08-29T11:13:29.443Z,99.90
2022-08-29T11:16:20.628Z,99.90
2022-08-29T11:19:23.433Z,99.90
2022-08-29T11:22:18.627Z,99.90
2022-08-29T11:25:15.435Z,99.90
2022-08-29T11:28:10.754Z,99.90
2022-08-29T11:31:03.522Z,99.90
2022-08-29T11:33:59.840Z,99.90
2022-08-29T11:37:01.412Z,99.90
2022-08-29T11:40:04.250Z,99.90
2022-08-29T11:42:55.414Z,99.90
2022-08-29T11:45:40.701Z,99.90
2022-08-29T11:48:48.408Z,99.90
2022-08-29T11:51:44.634Z,99.90
2022-08-29T11:55:26.500Z,99.90
2022-08-29T11:58:56.436Z,99.90
2022-08-29T12:02:06.694Z,99.80
2022-08-29T12:05:11.520Z,99.90
2022-08-29T12:08:26.189Z,99.90
2022-08-29T12:11:14.496Z,98.90
2022-08-29T12:14:09.721Z,97.60
2022-08-29T12:17:00.483Z,97.80
2022-08-29T12:20:22.272Z,97.70
2022-08-29T12:23:13.501Z,98.60
2022-08-29T12:26:21.080Z,98.30
2022-08-29T12:29:13.587Z,96.90
2022-08-29T12:32:29.842Z,95.90
2022-08-29T12:35:42.481Z,97.10
2022-08-29T12:38:44.745Z,98.10
2022-08-29T12:41:45.433Z,97.80
2022-08-29T12:44:40.611Z,97.40
2022-08-29T12:47:32.506Z,97.00
2022-08-29T12:50:25.640Z,96.00
2022-08-29T12:53:09.574Z,97.40
2022-08-29T12:56:02.660Z,97.90
2022-08-29T12:58:55.441Z,97.50
2022-08-29T13:01:46.664Z,97.10
2022-08-29T13:04:45.524Z,95.90
2022-08-29T13:07:35.673Z,95.10
2022-08-29T13:10:32.444Z,95.20
2022-08-29T13:13:25.718Z,95.80
2022-08-29T13:16:17.547Z,95.30
2022-08-29T13:19:11.211Z,95.20
2022-08-29T13:21:53.464Z,95.30
2022-08-29T13:24:41.642Z,95.50
2022-08-29T13:27:29.488Z,95.20
2022-08-29T13:30:36.468Z,95.20
2022-08-29T13:33:35.050Z,94.90
2022-08-29T13:36:52.455Z,94.30
2022-08-29T13:39:57.554Z,93.60
2022-08-29T13:42:52.683Z,93.80
2022-08-29T13:45:42.453Z,93.60
2022-08-29T13:48:34.654Z,93.00
2022-08-29T13:51:16.468Z,92.90
2022-08-29T13:54:34.073Z,93.10
2022-08-29T13:57:36.547Z,93.10
2022-08-29T14:00:34.813Z,92.60
2022-08-29T14:03:19.610Z,92.50
2022-08-29T14:06:07.680Z,92.10
2022-08-29T14:08:55.495Z,91.80
2022-08-29T14:11:58.559Z,92.20
2022-08-29T14:14:54.482Z,93.10
2022-08-29T14:17:36.341Z,92.60
2022-08-29T14:20:27.507Z,91.80
2022-08-29T14:23:09.390Z,91.00
2022-08-29T14:25:58.474Z,91.70
2022-08-29T14:28:52.829Z,92.20
2022-08-29T14:31:42.789Z,92.00
2022-08-29T14:34:40.486Z,92.20
2022-08-29T14:37:41.493Z,92.50
2022-08-29T14:40:26.127Z,93.00
2022-08-29T14:43:17.503Z,93.10
2022-08-29T14:45:59.752Z,92.60
2022-08-29T14:48:54.496Z,92.80
2022-08-29T14:51:44.207Z,91.90
2022-08-29T14:54:33.548Z,92.50
2022-08-29T14:57:28.564Z,92.40
2022-08-29T15:00:23.792Z,91.80
2022-08-29T15:03:06.566Z,91.60
2022-08-29T15:05:54.743Z,91.50
2022-08-29T15:08:43.549Z,91.50
2022-08-29T15:11:33.618Z,91.30
2022-08-29T15:14:22.517Z,91.10
2022-08-29T15:17:11.714Z,90.60
2022-08-29T15:23:08.699Z,89.50
2022-08-29T15:25:57.510Z,90.00
2022-08-29T15:28:47.805Z,90.40
2022-08-29T15:31:29.564Z,90.80
2022-08-29T15:34:18.774Z,90.60
2022-08-29T15:37:14.492Z,90.10
2022-08-29T15:40:02.760Z,89.00
2022-08-29T15:42:45.538Z,89.10
2022-08-29T15:45:35.683Z,89.50
2022-08-29T15:48:18.531Z,89.90
2022-08-29T15:51:06.708Z,90.10
2022-08-29T15:53:55.518Z,89.50
2022-08-29T15:56:43.648Z,89.50
2022-08-29T15:59:56.745Z,88.90
2022-08-29T16:02:36.705Z,88.40
2022-08-29T16:05:25.521Z,88.00
2022-08-29T16:08:17.757Z,88.80
2022-08-29T16:11:07.570Z,88.50
2022-08-29T16:14:08.391Z,88.80
2022-08-29T16:16:58.566Z,87.80
2022-08-29T16:19:48.886Z,86.80
2022-08-29T16:22:30.547Z,88.20
2022-08-29T16:25:19.829Z,88.40
2022-08-29T16:28:01.519Z,88.50
2022-08-29T16:30:51.888Z,87.80
2022-08-29T16:33:40.590Z,88.10
2022-08-29T16:36:37.675Z,87.50
2022-08-29T16:39:33.552Z,87.90
2022-08-29T16:42:21.815Z,88.40
2022-08-29T16:45:12.564Z,88.90
2022-08-29T16:48:00.785Z,89.80
2022-08-29T16:50:48.646Z,90.40
2022-08-29T16:53:39.008Z,88.90
2022-08-29T16:56:23.605Z,88.80
2022-08-29T16:59:12.516Z,88.10
2022-08-29T17:01:56.712Z,87.90
2022-08-29T17:04:46.896Z,88.40
2022-08-29T17:07:28.556Z,88.00
2022-08-29T17:10:17.680Z,88.00
2022-08-29T17:12:58.593Z,87.80
2022-08-29T17:15:45.756Z,88.20
2022-08-29T17:18:27.566Z,89.80
2022-08-29T17:21:13.555Z,90.40
2022-08-29T17:24:10.672Z,90.40
2022-08-29T17:26:53.765Z,90.70
2022-08-29T17:29:49.937Z,90.90
2022-08-29T17:32:44.986Z,90.30
2022-08-29T17:35:33.688Z,90.40
2022-08-29T17:38:21.839Z,90.50
2022-08-29T17:41:05.229Z,90.50
2022-08-29T17:44:05.711Z,90.40
2022-08-29T17:46:47.645Z,90.30
2022-08-29T17:49:35.728Z,90.40
2022-08-29T17:52:17.640Z,90.40
2022-08-29T17:55:07.578Z,90.40
2022-08-29T17:57:49.562Z,90.20
2022-08-29T18:00:39.922Z,90.10
2022-08-29T18:03:21.648Z,90.10
2022-08-29T18:06:10.269Z,90.30
2022-08-29T18:08:59.633Z,90.50
2022-08-29T18:11:50.795Z,90.40
2022-08-29T18:14:41.599Z,90.80
2022-08-29T18:17:31.671Z,90.80
2022-08-29T18:20:19.440Z,90.70
2022-08-29T18:23:07.586Z,90.80
2022-08-29T18:25:49.727Z,91.20
2022-08-29T18:28:45.766Z,91.10
2022-08-29T18:31:27.598Z,91.40
2022-08-29T18:34:17.681Z,91.30
2022-08-29T18:37:18.670Z,91.40
2022-08-29T18:40:24.680Z,91.60
2022-08-29T18:43:13.024Z,91.90
2022-08-29T18:46:00.686Z,92.00
2022-08-29T18:48:54.026Z,92.10
2022-08-29T18:51:39.604Z,92.00
2022-08-29T18:54:27.839Z,92.20
2022-08-29T18:57:09.612Z,92.30
2022-08-29T18:59:57.725Z,92.60
2022-08-29T19:02:39.693Z,92.70
2022-08-29T19:05:28.810Z,93.30
2022-08-29T19:08:12.677Z,93.10
2022-08-29T19:11:00.844Z,93.30
2022-08-29T19:13:52.472Z,93.50
2022-08-29T19:16:36.822Z,93.60
2022-08-29T19:19:24.641Z,93.60
2022-08-29T19:22:11.763Z,93.40
2022-08-29T19:25:02.593Z,93.70
2022-08-29T19:27:53.761Z,93.90
2022-08-29T19:30:42.688Z,93.90
2022-08-29T19:33:32.038Z,94.30
2022-08-29T19:36:27.677Z,94.60
2022-08-29T19:39:22.692Z,95.00
2022-08-29T19:42:16.106Z,95.30
2022-08-29T19:45:05.625Z,95.60
2022-08-29T19:47:55.817Z,96.00
2022-08-29T19:50:47.664Z,96.30
2022-08-29T19:53:35.954Z,96.70
2022-08-29T19:56:18.729Z,96.90
2022-08-29T19:59:11.733Z,97.00
2022-08-29T20:01:54.730Z,97.10
2022-08-29T20:04:42.820Z,97.40
2022-08-29T20:07:40.634Z,97.30
2022-08-29T20:10:42.952Z,97.60
2022-08-29T20:13:34.825Z,97.60
2022-08-29T20:16:30.652Z,97.80
2022-08-29T20:19:28.690Z,98.00
2022-08-29T20:22:23.854Z,98.80
2022-08-29T20:25:33.722Z,98.90
2022-08-29T20:28:24.633Z,98.80
2022-08-29T20:31:41.933Z,98.60
2022-08-29T20:34:53.106Z,98.70
2022-08-29T20:37:51.687Z,98.90
2022-08-29T20:40:32.911Z,98.90
2022-08-29T20:43:21.701Z,98.90
2022-08-29T20:46:43.183Z,99.00
2022-08-29T20:49:40.633Z,99.30
2022-08-29T20:56:00.764Z,99.60
2022-08-29T20:58:51.855Z,99.20
2022-08-29T21:01:33.702Z,99.20
2022-08-29T21:05:03.423Z,99.40
2022-08-29T21:07:47.155Z,99.80
2022-08-29T21:10:41.684Z,99.70
2022-08-29T21:13:29.660Z,99.40
2022-08-29T21:16:23.891Z,99.40
2022-08-29T21:19:15.687Z,99.80
2022-08-29T21:22:13.839Z,99.70
2022-08-29T21:25:11.689Z,99.70
2022-08-29T21:28:15.268Z,99.90
2022-08-29T21:31:24.895Z,99.90
2022-08-29T21:34:22.817Z,99.90
2022-08-29T21:37:31.739Z,99.90
2022-08-29T21:40:25.852Z,99.90
2022-08-29T21:43:13.624Z,99.90
2022-08-29T21:46:14.186Z,99.90
2022-08-29T21:49:02.875Z,99.90
2022-08-29T21:51:51.787Z,99.90
2022-08-29T21:54:44.670Z,99.90
2022-08-29T21:57:47.427Z,99.90
2022-08-29T22:00:38.754Z,99.90
2022-08-29T22:03:27.068Z,99.90
2022-08-29T22:06:08.704Z,99.90
2022-08-29T22:08:59.543Z,99.90
2022-08-29T22:11:43.685Z,99.90
2022-08-29T22:14:49.958Z,99.90
2022-08-29T22:17:31.673Z,99.90
2022-08-29T22:20:20.362Z,99.90
2022-08-29T22:23:01.690Z,99.90
2022-08-29T22:25:49.883Z,99.90
2022-08-29T22:28:39.701Z,99.90
2022-08-29T22:31:27.965Z,99.90
2022-08-29T22:34:16.703Z,99.90
2022-08-29T22:37:11.711Z,99.90
2022-08-29T22:40:06.724Z,99.90
2022-08-29T22:42:54.819Z,99.90
2022-08-29T22:45:44.683Z,99.90
2022-08-29T22:48:32.882Z,99.90
2022-08-29T22:51:19.717Z,99.90
2022-08-29T22:54:25.415Z,99.90
2022-08-29T22:57:15.690Z,99.90
2022-08-29T22:59:57.816Z,99.90
2022-08-29T23:02:47.776Z,99.90
2022-08-29T23:05:29.796Z,99.90
2022-08-29T23:08:18.812Z,99.90
2022-08-29T23:10:59.971Z,99.90
2022-08-29T23:13:54.749Z,99.90
2022-08-29T23:16:43.875Z,99.90
2022-08-29T23:19:35.694Z,99.90
2022-08-29T23:22:25.704Z,99.90
2022-08-29T23:25:07.913Z,99.90
2022-08-29T23:27:55.778Z,99.90
2022-08-29T23:30:37.946Z,99.90
2022-08-29T23:33:26.727Z,99.90
2022-08-29T23:36:23.730Z,99.90
2022-08-29T23:39:19.712Z,99.90
2022-08-29T23:42:07.869Z,99.90
2022-08-29T23:45:03.714Z,99.90
2022-08-29T23:47:51.967Z,99.90
2022-08-29T23:50:39.836Z,99.90
2022-08-29T23:53:31.133Z,99.90
2022-08-29T23:56:15.736Z,99.90
2022-08-29T23:59:05.972Z,99.90
